sensor_id;sensor_type;location;lat;lon;timestamp;pressure;altitude;pressure_sealevel;temperature
29701;BMP280;57917;51.380;-0.176;2023-12-22T00:03:19;100772.50;;;10.78
29701;BMP280;57917;51.380;-0.176;2023-12-22T00:09:07;100768.75;;;10.84
29701;BMP280;57917;51.380;-0.176;2023-12-22T00:14:54;100775.91;;;10.83
29701;BMP280;57917;51.380;-0.176;2023-12-22T00:20:50;100766.69;;;10.76
29701;BMP280;57917;51.380;-0.176;2023-12-22T00:26:42;100798.63;;;10.94
29701;BMP280;57917;51.380;-0.176;2023-12-22T00:32:31;100800.50;;;10.94
29701;BMP280;57917;51.380;-0.176;2023-12-22T00:38:18;100792.75;;;11.02
29701;BMP280;57917;51.380;-0.176;2023-12-22T00:44:08;100790.84;;;11.13
29701;BMP280;57917;51.380;-0.176;2023-12-22T00:49:55;100811.22;;;11.17
29701;BMP280;57917;51.380;-0.176;2023-12-22T00:55:43;100812.25;;;11.21
29701;BMP280;57917;51.380;-0.176;2023-12-22T01:01:34;100809.84;;;11.25
29701;BMP280;57917;51.380;-0.176;2023-12-22T01:07:20;100828.31;;;11.40
29701;BMP280;57917;51.380;-0.176;2023-12-22T01:13:20;100826.78;;;11.29
29701;BMP280;57917;51.380;-0.176;2023-12-22T01:19:08;100823.25;;;11.44
29701;BMP280;57917;51.380;-0.176;2023-12-22T01:24:55;100832.47;;;11.51
29701;BMP280;57917;51.380;-0.176;2023-12-22T01:30:42;100838.28;;;11.53
29701;BMP280;57917;51.380;-0.176;2023-12-22T01:36:39;100847.00;;;11.59
29701;BMP280;57917;51.380;-0.176;2023-12-22T01:42:26;100860.56;;;11.57
29701;BMP280;57917;51.380;-0.176;2023-12-22T01:48:13;100859.44;;;11.63
29701;BMP280;57917;51.380;-0.176;2023-12-22T01:54:01;100858.00;;;11.42
29701;BMP280;57917;51.380;-0.176;2023-12-22T01:59:48;100846.56;;;11.47
29701;BMP280;57917;51.380;-0.176;2023-12-22T02:05:35;100867.50;;;11.48
29701;BMP280;57917;51.380;-0.176;2023-12-22T02:11:23;100903.38;;;11.30
29701;BMP280;57917;51.380;-0.176;2023-12-22T02:17:44;100899.75;;;11.06
29701;BMP280;57917;51.380;-0.176;2023-12-22T02:23:37;100897.41;;;11.00
29701;BMP280;57917;51.380;-0.176;2023-12-22T02:29:32;100885.44;;;11.12
29701;BMP280;57917;51.380;-0.176;2023-12-22T02:35:25;100879.09;;;11.08
29701;BMP280;57917;51.380;-0.176;2023-12-22T02:41:13;100862.28;;;11.28
29701;BMP280;57917;51.380;-0.176;2023-12-22T02:47:14;100837.44;;;11.19
29701;BMP280;57917;51.380;-0.176;2023-12-22T02:53:09;100841.34;;;11.31
29701;BMP280;57917;51.380;-0.176;2023-12-22T02:58:56;100839.56;;;11.17
29701;BMP280;57917;51.380;-0.176;2023-12-22T03:04:44;100814.22;;;11.06
29701;BMP280;57917;51.380;-0.176;2023-12-22T03:10:33;100799.09;;;11.06
29701;BMP280;57917;51.380;-0.176;2023-12-22T03:16:19;100795.41;;;11.02
29701;BMP280;57917;51.380;-0.176;2023-12-22T03:22:07;100790.41;;;10.96
29701;BMP280;57917;51.380;-0.176;2023-12-22T03:27:54;100777.22;;;10.86
29701;BMP280;57917;51.380;-0.176;2023-12-22T03:33:40;100776.22;;;10.77
29701;BMP280;57917;51.380;-0.176;2023-12-22T03:39:29;100771.94;;;10.86
29701;BMP280;57917;51.380;-0.176;2023-12-22T03:45:18;100772.00;;;10.71
29701;BMP280;57917;51.380;-0.176;2023-12-22T03:51:06;100768.00;;;10.78
29701;BMP280;57917;51.380;-0.176;2023-12-22T03:56:52;100745.78;;;10.69
29701;BMP280;57917;51.380;-0.176;2023-12-22T04:02:39;100735.63;;;10.91
29701;BMP280;57917;51.380;-0.176;2023-12-22T04:08:26;100741.75;;;10.87
29701;BMP280;57917;51.380;-0.176;2023-12-22T04:14:13;100741.75;;;10.82
29701;BMP280;57917;51.380;-0.176;2023-12-22T04:20:02;100734.91;;;10.81
29701;BMP280;57917;51.380;-0.176;2023-12-22T04:25:49;100753.34;;;10.96
29701;BMP280;57917;51.380;-0.176;2023-12-22T04:31:37;100743.16;;;11.13
29701;BMP280;57917;51.380;-0.176;2023-12-22T04:37:24;100730.50;;;11.10
29701;BMP280;57917;51.380;-0.176;2023-12-22T04:43:14;100721.31;;;11.31
29701;BMP280;57917;51.380;-0.176;2023-12-22T04:49:00;100741.75;;;11.25
29701;BMP280;57917;51.380;-0.176;2023-12-22T04:54:48;100722.69;;;11.23
29701;BMP280;57917;51.380;-0.176;2023-12-22T05:00:35;100716.53;;;11.33
29701;BMP280;57917;51.380;-0.176;2023-12-22T05:06:24;100734.50;;;11.36
29701;BMP280;57917;51.380;-0.176;2023-12-22T05:12:17;100718.81;;;11.45
29701;BMP280;57917;51.380;-0.176;2023-12-22T05:18:06;100716.63;;;11.52
29701;BMP280;57917;51.380;-0.176;2023-12-22T05:23:53;100708.78;;;11.65
29701;BMP280;57917;51.380;-0.176;2023-12-22T05:29:40;100731.44;;;11.81
29701;BMP280;57917;51.380;-0.176;2023-12-22T05:35:27;100738.47;;;11.67
29701;BMP280;57917;51.380;-0.176;2023-12-22T05:41:14;100751.53;;;11.64
29701;BMP280;57917;51.380;-0.176;2023-12-22T05:47:01;100761.13;;;11.55
29701;BMP280;57917;51.380;-0.176;2023-12-22T05:52:50;100775.63;;;11.33
29701;BMP280;57917;51.380;-0.176;2023-12-22T05:58:37;100782.22;;;11.36
29701;BMP280;57917;51.380;-0.176;2023-12-22T06:04:25;100777.06;;;11.16
29701;BMP280;57917;51.380;-0.176;2023-12-22T06:10:12;100774.94;;;11.18
29701;BMP280;57917;51.380;-0.176;2023-12-22T06:15:59;100765.44;;;11.12
29701;BMP280;57917;51.380;-0.176;2023-12-22T06:21:49;100773.31;;;11.22
29701;BMP280;57917;51.380;-0.176;2023-12-22T06:27:35;100759.19;;;11.31
29701;BMP280;57917;51.380;-0.176;2023-12-22T06:33:23;100743.34;;;11.26
29701;BMP280;57917;51.380;-0.176;2023-12-22T06:39:10;100736.06;;;11.42
29701;BMP280;57917;51.380;-0.176;2023-12-22T06:44:57;100744.19;;;11.51
29701;BMP280;57917;51.380;-0.176;2023-12-22T06:50:44;100735.72;;;11.54
29701;BMP280;57917;51.380;-0.176;2023-12-22T06:56:33;100741.25;;;11.52
29701;BMP280;57917;51.380;-0.176;2023-12-22T07:02:20;100729.09;;;11.51
29701;BMP280;57917;51.380;-0.176;2023-12-22T07:08:10;100743.78;;;11.67
29701;BMP280;57917;51.380;-0.176;2023-12-22T07:13:58;100746.31;;;11.82
29701;BMP280;57917;51.380;-0.176;2023-12-22T07:19:45;100765.06;;;11.91
29701;BMP280;57917;51.380;-0.176;2023-12-22T07:25:36;100783.53;;;11.72
29701;BMP280;57917;51.380;-0.176;2023-12-22T07:31:25;100779.97;;;11.82
29701;BMP280;57917;51.380;-0.176;2023-12-22T07:37:14;100773.56;;;11.88
29701;BMP280;57917;51.380;-0.176;2023-12-22T07:43:01;100780.25;;;11.80
29701;BMP280;57917;51.380;-0.176;2023-12-22T07:48:48;100772.41;;;11.99
29701;BMP280;57917;51.380;-0.176;2023-12-22T07:54:35;100777.91;;;12.02
29701;BMP280;57917;51.380;-0.176;2023-12-22T08:00:22;100782.22;;;11.98
29701;BMP280;57917;51.380;-0.176;2023-12-22T08:06:09;100776.47;;;11.86
29701;BMP280;57917;51.380;-0.176;2023-12-22T08:11:58;100787.09;;;11.91
29701;BMP280;57917;51.380;-0.176;2023-12-22T08:17:49;100787.09;;;11.91
29701;BMP280;57917;51.380;-0.176;2023-12-22T08:23:36;100800.84;;;11.93
29701;BMP280;57917;51.380;-0.176;2023-12-22T08:29:31;100798.78;;;11.85
29701;BMP280;57917;51.380;-0.176;2023-12-22T08:35:19;100795.09;;;11.81
29701;BMP280;57917;51.380;-0.176;2023-12-22T08:41:07;100801.44;;;11.85
29701;BMP280;57917;51.380;-0.176;2023-12-22T08:46:55;100809.91;;;11.87
29701;BMP280;57917;51.380;-0.176;2023-12-22T08:52:42;100813.00;;;11.94
29701;BMP280;57917;51.380;-0.176;2023-12-22T08:58:29;100817.53;;;11.94
29701;BMP280;57917;51.380;-0.176;2023-12-22T09:04:16;100823.31;;;12.01
29701;BMP280;57917;51.380;-0.176;2023-12-22T09:10:04;100831.97;;;12.11
29701;BMP280;57917;51.380;-0.176;2023-12-22T09:15:53;100826.25;;;12.23
29701;BMP280;57917;51.380;-0.176;2023-12-22T09:21:40;100815.13;;;12.26
29701;BMP280;57917;51.380;-0.176;2023-12-22T09:27:28;100831.22;;;12.34
29701;BMP280;57917;51.380;-0.176;2023-12-22T09:33:17;100840.50;;;12.55
29701;BMP280;57917;51.380;-0.176;2023-12-22T09:39:06;100856.97;;;12.29
29701;BMP280;57917;51.380;-0.176;2023-12-22T09:44:55;100853.97;;;12.40
29701;BMP280;57917;51.380;-0.176;2023-12-22T09:50:44;100860.84;;;12.41
29701;BMP280;57917;51.380;-0.176;2023-12-22T09:56:33;100872.78;;;12.15
29701;BMP280;57917;51.380;-0.176;2023-12-22T10:02:20;100890.09;;;12.36
29701;BMP280;57917;51.380;-0.176;2023-12-22T10:08:12;100894.22;;;12.24
29701;BMP280;57917;51.380;-0.176;2023-12-22T10:14:21;100904.91;;;12.42
29701;BMP280;57917;51.380;-0.176;2023-12-22T10:20:13;100896.94;;;12.42
29701;BMP280;57917;51.380;-0.176;2023-12-22T10:26:00;100902.38;;;12.32
29701;BMP280;57917;51.380;-0.176;2023-12-22T10:31:51;100913.41;;;12.44
29701;BMP280;57917;51.380;-0.176;2023-12-22T10:37:43;100894.59;;;12.64
29701;BMP280;57917;51.380;-0.176;2023-12-22T10:43:30;100909.16;;;12.91
29701;BMP280;57917;51.380;-0.176;2023-12-22T10:49:24;100893.75;;;12.93
29701;BMP280;57917;51.380;-0.176;2023-12-22T10:55:12;100902.13;;;12.81
29701;BMP280;57917;51.380;-0.176;2023-12-22T11:01:31;100905.88;;;12.99
29701;BMP280;57917;51.380;-0.176;2023-12-22T11:07:59;100903.13;;;12.85
29701;BMP280;57917;51.380;-0.176;2023-12-22T11:15:09;100898.16;;;12.78
29701;BMP280;57917;51.380;-0.176;2023-12-22T11:21:01;100901.41;;;12.70
29701;BMP280;57917;51.380;-0.176;2023-12-22T11:26:54;100905.94;;;12.94
29701;BMP280;57917;51.380;-0.176;2023-12-22T11:32:48;100900.41;;;13.09
29701;BMP280;57917;51.380;-0.176;2023-12-22T11:45:32;100914.19;;;12.92
29701;BMP280;57917;51.380;-0.176;2023-12-22T11:51:22;100898.75;;;12.70
29701;BMP280;57917;51.380;-0.176;2023-12-22T12:03:18;100891.63;;;12.90
29701;BMP280;57917;51.380;-0.176;2023-12-22T12:09:06;100872.78;;;13.10
29701;BMP280;57917;51.380;-0.176;2023-12-22T12:14:57;100860.38;;;13.05
29701;BMP280;57917;51.380;-0.176;2023-12-22T12:20:44;100862.91;;;12.92
29701;BMP280;57917;51.380;-0.176;2023-12-22T12:26:34;100860.53;;;13.14
29701;BMP280;57917;51.380;-0.176;2023-12-22T12:32:23;100851.41;;;13.20
29701;BMP280;57917;51.380;-0.176;2023-12-22T12:44:56;100859.06;;;13.21
29701;BMP280;57917;51.380;-0.176;2023-12-22T12:50:46;100863.66;;;13.16
29701;BMP280;57917;51.380;-0.176;2023-12-22T12:56:45;100863.59;;;13.21
29701;BMP280;57917;51.380;-0.176;2023-12-22T13:02:35;100877.66;;;13.03
29701;BMP280;57917;51.380;-0.176;2023-12-22T13:08:22;100887.47;;;12.83
29701;BMP280;57917;51.380;-0.176;2023-12-22T13:14:24;100886.53;;;12.74
29701;BMP280;57917;51.380;-0.176;2023-12-22T13:20:12;100879.47;;;12.83
29701;BMP280;57917;51.380;-0.176;2023-12-22T13:26:00;100872.75;;;12.72
29701;BMP280;57917;51.380;-0.176;2023-12-22T13:31:47;100883.38;;;12.72
29701;BMP280;57917;51.380;-0.176;2023-12-22T13:37:40;100899.75;;;12.79
29701;BMP280;57917;51.380;-0.176;2023-12-22T13:43:28;100889.06;;;12.85
29701;BMP280;57917;51.380;-0.176;2023-12-22T13:49:16;100886.75;;;13.02
29701;BMP280;57917;51.380;-0.176;2023-12-22T13:55:13;100890.63;;;12.86
29701;BMP280;57917;51.380;-0.176;2023-12-22T14:01:12;100903.78;;;12.96
29701;BMP280;57917;51.380;-0.176;2023-12-22T14:07:17;100877.56;;;12.89
29701;BMP280;57917;51.380;-0.176;2023-12-22T14:13:06;100887.22;;;13.04
29701;BMP280;57917;51.380;-0.176;2023-12-22T14:18:53;100880.75;;;13.10
29701;BMP280;57917;51.380;-0.176;2023-12-22T14:24:41;100884.09;;;13.02
29701;BMP280;57917;51.380;-0.176;2023-12-22T14:30:28;100908.41;;;13.09
29701;BMP280;57917;51.380;-0.176;2023-12-22T14:36:15;100910.44;;;13.17
29701;BMP280;57917;51.380;-0.176;2023-12-22T14:42:02;100914.06;;;13.02
29701;BMP280;57917;51.380;-0.176;2023-12-22T14:47:50;100904.91;;;13.13
29701;BMP280;57917;51.380;-0.176;2023-12-22T14:53:39;100920.69;;;13.05
29701;BMP280;57917;51.380;-0.176;2023-12-22T14:59:26;100929.84;;;13.17
29701;BMP280;57917;51.380;-0.176;2023-12-22T15:05:12;100934.69;;;13.10
29701;BMP280;57917;51.380;-0.176;2023-12-22T15:11:01;100945.69;;;13.04
29701;BMP280;57917;51.380;-0.176;2023-12-22T15:16:48;100951.25;;;13.07
29701;BMP280;57917;51.380;-0.176;2023-12-22T15:22:37;100962.38;;;12.86
29701;BMP280;57917;51.380;-0.176;2023-12-22T15:28:26;100979.03;;;12.67
29701;BMP280;57917;51.380;-0.176;2023-12-22T15:34:15;100983.97;;;12.50
29701;BMP280;57917;51.380;-0.176;2023-12-22T15:40:03;100996.50;;;12.73
29701;BMP280;57917;51.380;-0.176;2023-12-22T15:45:50;100979.00;;;12.72
29701;BMP280;57917;51.380;-0.176;2023-12-22T15:51:38;100979.72;;;12.49
29701;BMP280;57917;51.380;-0.176;2023-12-22T15:57:25;100984.34;;;12.39
29701;BMP280;57917;51.380;-0.176;2023-12-22T16:03:30;100985.81;;;12.55
29701;BMP280;57917;51.380;-0.176;2023-12-22T16:09:57;100990.91;;;12.46
29701;BMP280;57917;51.380;-0.176;2023-12-22T16:15:44;101006.13;;;12.36
29701;BMP280;57917;51.380;-0.176;2023-12-22T16:21:32;101014.59;;;12.38
29701;BMP280;57917;51.380;-0.176;2023-12-22T16:27:23;101019.47;;;12.31
29701;BMP280;57917;51.380;-0.176;2023-12-22T16:33:20;101022.22;;;12.49
29701;BMP280;57917;51.380;-0.176;2023-12-22T16:39:18;101028.97;;;12.37
29701;BMP280;57917;51.380;-0.176;2023-12-22T16:45:38;101030.31;;;12.34
29701;BMP280;57917;51.380;-0.176;2023-12-22T16:51:29;101057.31;;;12.41
29701;BMP280;57917;51.380;-0.176;2023-12-22T16:57:16;101057.41;;;12.31
29701;BMP280;57917;51.380;-0.176;2023-12-22T17:03:07;101054.69;;;12.41
29701;BMP280;57917;51.380;-0.176;2023-12-22T17:08:55;101059.00;;;12.32
29701;BMP280;57917;51.380;-0.176;2023-12-22T17:14:42;101044.78;;;12.08
29701;BMP280;57917;51.380;-0.176;2023-12-22T17:20:34;101059.16;;;12.07
29701;BMP280;57917;51.380;-0.176;2023-12-22T17:34:26;101081.53;;;11.86
29701;BMP280;57917;51.380;-0.176;2023-12-22T17:40:13;101092.16;;;11.91
29701;BMP280;57917;51.380;-0.176;2023-12-22T17:46:00;101095.88;;;11.85
29701;BMP280;57917;51.380;-0.176;2023-12-22T17:51:47;101109.63;;;11.97
29701;BMP280;57917;51.380;-0.176;2023-12-22T17:57:34;101116.50;;;11.98
29701;BMP280;57917;51.380;-0.176;2023-12-22T18:03:24;101118.38;;;11.98
29701;BMP280;57917;51.380;-0.176;2023-12-22T18:09:12;101123.19;;;11.91
29701;BMP280;57917;51.380;-0.176;2023-12-22T18:15:00;101139.81;;;12.11
29701;BMP280;57917;51.380;-0.176;2023-12-22T18:20:47;101131.34;;;12.04
29701;BMP280;57917;51.380;-0.176;2023-12-22T18:33:24;101145.88;;;12.17
29701;BMP280;57917;51.380;-0.176;2023-12-22T18:39:13;101162.09;;;12.10
29701;BMP280;57917;51.380;-0.176;2023-12-22T18:45:01;101161.34;;;12.05
29701;BMP280;57917;51.380;-0.176;2023-12-22T18:50:48;101152.03;;;12.02
29701;BMP280;57917;51.380;-0.176;2023-12-22T19:03:26;101164.59;;;11.82
29701;BMP280;57917;51.380;-0.176;2023-12-22T19:09:20;101169.06;;;11.86
29701;BMP280;57917;51.380;-0.176;2023-12-22T19:15:07;101171.75;;;11.91
29701;BMP280;57917;51.380;-0.176;2023-12-22T19:20:59;101171.22;;;11.89
29701;BMP280;57917;51.380;-0.176;2023-12-22T19:26:46;101170.19;;;11.75
29701;BMP280;57917;51.380;-0.176;2023-12-22T19:32:34;101155.88;;;11.76
29701;BMP280;57917;51.380;-0.176;2023-12-22T19:38:23;101154.28;;;11.65
29701;BMP280;57917;51.380;-0.176;2023-12-22T19:44:11;101150.88;;;11.50
29701;BMP280;57917;51.380;-0.176;2023-12-22T19:49:58;101155.88;;;11.66
29701;BMP280;57917;51.380;-0.176;2023-12-22T19:55:45;101169.72;;;11.48
29701;BMP280;57917;51.380;-0.176;2023-12-22T20:01:33;101176.84;;;11.53
29701;BMP280;57917;51.380;-0.176;2023-12-22T20:07:20;101182.44;;;11.51
29701;BMP280;57917;51.380;-0.176;2023-12-22T20:13:08;101182.97;;;11.48
29701;BMP280;57917;51.380;-0.176;2023-12-22T20:18:55;101201.78;;;11.52
29701;BMP280;57917;51.380;-0.176;2023-12-22T20:24:44;101210.56;;;11.27
29701;BMP280;57917;51.380;-0.176;2023-12-22T20:30:31;101210.00;;;11.30
29701;BMP280;57917;51.380;-0.176;2023-12-22T20:36:21;101198.91;;;11.33
29701;BMP280;57917;51.380;-0.176;2023-12-22T20:42:11;101215.59;;;11.33
29701;BMP280;57917;51.380;-0.176;2023-12-22T20:56:59;101222.75;;;11.48
29701;BMP280;57917;51.380;-0.176;2023-12-22T21:02:46;101249.00;;;11.35
29701;BMP280;57917;51.380;-0.176;2023-12-22T21:08:34;101255.63;;;11.32
29701;BMP280;57917;51.380;-0.176;2023-12-22T21:14:22;101246.06;;;11.11
29701;BMP280;57917;51.380;-0.176;2023-12-22T21:20:09;101240.22;;;11.19
29701;BMP280;57917;51.380;-0.176;2023-12-22T21:25:57;101244.75;;;11.18
29701;BMP280;57917;51.380;-0.176;2023-12-22T21:31:45;101260.06;;;10.91
29701;BMP280;57917;51.380;-0.176;2023-12-22T21:37:32;101240.75;;;11.06
29701;BMP280;57917;51.380;-0.176;2023-12-22T21:43:19;101267.75;;;10.93
29701;BMP280;57917;51.380;-0.176;2023-12-22T21:49:20;101260.22;;;10.65
29701;BMP280;57917;51.380;-0.176;2023-12-22T21:55:10;101253.66;;;10.77
29701;BMP280;57917;51.380;-0.176;2023-12-22T22:01:02;101240.13;;;10.64
29701;BMP280;57917;51.380;-0.176;2023-12-22T22:06:50;101238.88;;;10.91
29701;BMP280;57917;51.380;-0.176;2023-12-22T22:12:38;101265.06;;;10.83
29701;BMP280;57917;51.380;-0.176;2023-12-22T22:18:30;101257.63;;;10.90
29701;BMP280;57917;51.380;-0.176;2023-12-22T22:24:17;101248.66;;;10.91
29701;BMP280;57917;51.380;-0.176;2023-12-22T22:30:05;101244.84;;;10.52
29701;BMP280;57917;51.380;-0.176;2023-12-22T22:35:57;101250.38;;;10.45
29701;BMP280;57917;51.380;-0.176;2023-12-22T22:41:59;101239.56;;;10.62
29701;BMP280;57917;51.380;-0.176;2023-12-22T22:47:49;101240.31;;;10.47
29701;BMP280;57917;51.380;-0.176;2023-12-22T22:53:37;101245.31;;;10.39
29701;BMP280;57917;51.380;-0.176;2023-12-22T22:59:51;101252.78;;;10.57
29701;BMP280;57917;51.380;-0.176;2023-12-22T23:05:40;101249.56;;;10.45
29701;BMP280;57917;51.380;-0.176;2023-12-22T23:11:29;101258.53;;;10.39
29701;BMP280;57917;51.380;-0.176;2023-12-22T23:17:24;101263.72;;;10.70
29701;BMP280;57917;51.380;-0.176;2023-12-22T23:23:35;101270.31;;;10.68
29701;BMP280;57917;51.380;-0.176;2023-12-22T23:29:23;101267.19;;;10.86
29701;BMP280;57917;51.380;-0.176;2023-12-22T23:41:44;101266.16;;;10.87
29701;BMP280;57917;51.380;-0.176;2023-12-22T23:47:42;101257.34;;;10.76
29701;BMP280;57917;51.380;-0.176;2023-12-22T23:53:49;101249.16;;;10.73
29701;BMP280;57917;51.380;-0.176;2023-12-22T23:59:51;101236.88;;;10.47
